TimeCST,TemperatureF,Dew PointF,Humidity,Sea Level PressureIn,VisibilityMPH,Wind Direction,Wind SpeedMPH,Gust SpeedMPH,PrecipitationIn,Events,Conditions,WindDirDegrees,DateUTC
12:58 AM,15.6,8.4,73,30.53,10.0,Calm,Calm,-,N/A,,Clear,0,2014-01-08 06:58:00
1:58 AM,16.0,9.7,76,30.55,10.0,Calm,Calm,-,N/A,,Clear,0,2014-01-08 07:58:00
2:58 AM,14.5,9.5,80,30.55,10.0,ESE,2.3,-,N/A,,Clear,120,2014-01-08 08:58:00
3:58 AM,14.7,9.9,81,30.54,10.0,East,3.5,-,N/A,,Clear,100,2014-01-08 09:58:00
4:58 AM,15.3,9.0,76,30.54,10.0,Calm,Calm,-,N/A,,Clear,0,2014-01-08 10:58:00
5:58 AM,14.0,9.3,82,30.53,10.0,SE,2.3,-,N/A,,Clear,130,2014-01-08 11:58:00
6:58 AM,13.3,7.9,79,30.56,10.0,ESE,2.3,-,N/A,,Clear,120,2014-01-08 12:58:00
7:58 AM,17.4,10.4,74,30.57,10.0,ESE,4.6,-,N/A,,Clear,120,2014-01-08 13:58:00
8:58 AM,25.0,11.1,56,30.57,10.0,ESE,6.9,-,N/A,,Clear,120,2014-01-08 14:58:00
9:58 AM,29.3,7.2,39,30.58,10.0,Variable,4.6,-,N/A,,Clear,0,2014-01-08 15:58:00
10:58 AM,34.0,8.4,34,30.56,10.0,SE,5.8,-,N/A,,Clear,140,2014-01-08 16:58:00
11:58 AM,37.4,6.8,28,30.50,10.0,SSE,5.8,-,N/A,,Clear,150,2014-01-08 17:58:00
12:58 PM,42.1,5.7,22,30.46,10.0,Variable,5.8,-,N/A,,Clear,0,2014-01-08 18:58:00
1:58 PM,44.1,3.4,19,30.44,10.0,Variable,6.9,-,N/A,,Clear,0,2014-01-08 19:58:00
2:58 PM,44.8,0.3,16,30.42,10.0,SSE,9.2,-,N/A,,Clear,150,2014-01-08 20:58:00
3:58 PM,43.5,1.0,17,30.44,10.0,SSW,4.6,-,N/A,,Clear,200,2014-01-08 21:58:00
4:58 PM,37.8,6.1,27,30.43,10.0,ESE,5.8,-,N/A,,Clear,120,2014-01-08 22:58:00
5:58 PM,31.8,12.7,45,30.42,10.0,SSE,6.9,-,N/A,,Clear,150,2014-01-08 23:58:00
6:58 PM,33.3,10.6,39,30.41,10.0,SE,10.4,-,N/A,,Partly Cloudy,140,2014-01-09 00:58:00
7:58 PM,34.3,10.6,37,30.44,10.0,SSW,1.2,-,N/A,,Clear,210,2014-01-09 01:58:00
8:58 PM,31.8,14.0,48,30.45,10.0,Calm,Calm,-,N/A,,Clear,0,2014-01-09 02:58:00
9:58 PM,31.3,19.8,62,30.45,10.0,Calm,Calm,-,N/A,,Mostly Cloudy,0,2014-01-09 03:58:00
10:58 PM,32.2,18.1,56,30.44,10.0,South,3.5,-,N/A,,Scattered Clouds,170,2014-01-09 04:58:00
11:58 PM,29.8,19.8,66,30.43,10.0,SE,3.5,-,N/A,,Partly Cloudy,130,2014-01-09 05:58:00